메인 페이지
METAR-TAF:

METAR-TAF

공항 :

멕시코시티 국제공항

멕시코시티, 멕시코

위도: 19-26N, 경도: 099-06W, 고도: 2238m

현재 날씨관측

예보는 29분 전, 09:43시(UTC)에 발표되었습니다.
무풍
온도 18°C
습도 59%
기압 1025 hPa
시정: 16.1km
고도 8000ft 상공 구름 조금
고도 22000ft 상공 구름 많음

METAR: MMMX 250943Z 00000KT 10SM FEW080 BKN220 18/10 A3026 NOSIG RMK 8/058

시각: 05:12 (10:12 UTC)

예보

예보는 5 시간 1분 전, 05:11시(UTC)에 발표되었습니다.
예보 대상 시간: 25일 06시부터 26일 06시까지 (UTC)
서남서5kt
시정: 10km
고도 2000ft 상공 구름 보통
고도 8000ft 상공 구름 많음
고도 22000ft 상공 흐림
25일 0800시부터 (UTC)
5kt
시정: 10km
고도 10000ft 상공 구름 보통
25일 1800시부터 (UTC)
10kt
시정: 10km
고도 2000ft 상공 구름 보통
25일 2000시부터 (UTC)
12kt
시정: 10km
고도 2000ft 상공 구름 보통, 적란운.
일시적
25일 20시부터 25일 22시까지 (UTC)
남남동10kt, 순간 최대 풍속 20kt
26일 0600시부터 (UTC)
10kt
시정: 10km
고도 2000ft 상공 구름 보통

TAF: MMMX 250511Z 2506/2606 25005KT P6SM SCT020 BKN080 OVC220 TX31/2521Z TN17/2513Z FM250800 18005KT P6SM SCT100 FM251800 10010KT P6SM SCT020 FM252000 10012KT P6SM SCT020CB TEMPO 2520/2522 15010G20KT FM260600 27010KT P6SM SCT020

4,000개 이상의 공항 관측 자료 및 예보 (METAR 및 TAF 보고).

지도상에서 검색 가능한 기상관측소가 노란 점과 빨간 점으로 표시되어 있습니다.

기상관측소 명을 보려면 표시 위로 마우스를 이동하세요.

날씨 관측과 예보를 보려면 클릭하세요.

지도 변경 : 확대하려면 엑스 표시가 있는 녹색 버튼, 축소하려면 빼기 표시가 있는 녹색 버튼, 다음 페이지의 지도를 보려면 녹색 화살표를 클릭하세요.


METAR-TAF: